sensor_id;sensor_type;location;lat;lon;timestamp;P1;durP1;ratioP1;P2;durP2;ratioP2
75191;SDS011;63771;52.580;9.734;2024-02-14T00:01:05;3.90;;;1.92;;
75191;SDS011;63771;52.580;9.734;2024-02-14T00:05:59;1.60;;;1.53;;
75191;SDS011;63771;52.580;9.734;2024-02-14T00:08:24;1.93;;;1.53;;
75191;SDS011;63771;52.580;9.734;2024-02-14T00:10:49;3.50;;;1.87;;
75191;SDS011;63771;52.580;9.734;2024-02-14T00:13:15;1.77;;;1.67;;
75191;SDS011;63771;52.580;9.734;2024-02-14T00:15:43;1.85;;;1.65;;
75191;SDS011;63771;52.580;9.734;2024-02-14T00:18:08;2.22;;;1.55;;
75191;SDS011;63771;52.580;9.734;2024-02-14T00:20:33;2.73;;;1.83;;
75191;SDS011;63771;52.580;9.734;2024-02-14T00:22:59;2.50;;;1.80;;
75191;SDS011;63771;52.580;9.734;2024-02-14T00:25:24;3.17;;;1.40;;
75191;SDS011;63771;52.580;9.734;2024-02-14T00:27:49;3.03;;;1.77;;
75191;SDS011;63771;52.580;9.734;2024-02-14T00:30:15;1.40;;;1.40;;
75191;SDS011;63771;52.580;9.734;2024-02-14T00:32:40;3.58;;;1.35;;
75191;SDS011;63771;52.580;9.734;2024-02-14T00:35:06;1.95;;;1.70;;
75191;SDS011;63771;52.580;9.734;2024-02-14T00:37:32;2.80;;;1.77;;
75191;SDS011;63771;52.580;9.734;2024-02-14T00:39:58;3.92;;;1.77;;
75191;SDS011;63771;52.580;9.734;2024-02-14T00:42:23;2.30;;;1.73;;
75191;SDS011;63771;52.580;9.734;2024-02-14T00:44:49;2.07;;;1.67;;
75191;SDS011;63771;52.580;9.734;2024-02-14T00:47:14;1.85;;;1.75;;
75191;SDS011;63771;52.580;9.734;2024-02-14T00:49:39;2.77;;;1.80;;
75191;SDS011;63771;52.580;9.734;2024-02-14T00:52:05;1.90;;;1.80;;
75191;SDS011;63771;52.580;9.734;2024-02-14T00:54:31;4.00;;;1.95;;
75191;SDS011;63771;52.580;9.734;2024-02-14T00:56:56;2.53;;;2.00;;
75191;SDS011;63771;52.580;9.734;2024-02-14T00:59:22;1.67;;;1.57;;
75191;SDS011;63771;52.580;9.734;2024-02-14T01:01:47;2.20;;;1.90;;
75191;SDS011;63771;52.580;9.734;2024-02-14T01:04:12;2.23;;;1.50;;
75191;SDS011;63771;52.580;9.734;2024-02-14T01:06:38;2.67;;;1.63;;
75191;SDS011;63771;52.580;9.734;2024-02-14T01:09:03;2.35;;;2.10;;
75191;SDS011;63771;52.580;9.734;2024-02-14T01:11:29;1.97;;;1.87;;
75191;SDS011;63771;52.580;9.734;2024-02-14T01:13:54;2.35;;;2.15;;
75191;SDS011;63771;52.580;9.734;2024-02-14T01:16:20;4.53;;;1.87;;
75191;SDS011;63771;52.580;9.734;2024-02-14T01:18:45;1.53;;;1.07;;
75191;SDS011;63771;52.580;9.734;2024-02-14T01:21:10;4.30;;;1.57;;
75191;SDS011;63771;52.580;9.734;2024-02-14T01:23:36;3.35;;;1.77;;
75191;SDS011;63771;52.580;9.734;2024-02-14T01:26:01;3.93;;;1.70;;
75191;SDS011;63771;52.580;9.734;2024-02-14T01:28:27;1.55;;;1.45;;
75191;SDS011;63771;52.580;9.734;2024-02-14T01:30:52;3.28;;;1.77;;
75191;SDS011;63771;52.580;9.734;2024-02-14T01:33:18;1.73;;;1.63;;
75191;SDS011;63771;52.580;9.734;2024-02-14T01:35:43;2.75;;;2.17;;
75191;SDS011;63771;52.580;9.734;2024-02-14T01:38:09;2.67;;;1.63;;
75191;SDS011;63771;52.580;9.734;2024-02-14T01:40:34;1.70;;;1.60;;
75191;SDS011;63771;52.580;9.734;2024-02-14T01:42:59;1.50;;;1.40;;
75191;SDS011;63771;52.580;9.734;2024-02-14T01:45:25;1.65;;;1.55;;
75191;SDS011;63771;52.580;9.734;2024-02-14T01:47:52;1.63;;;1.52;;
75191;SDS011;63771;52.580;9.734;2024-02-14T01:50:18;1.65;;;1.55;;
75191;SDS011;63771;52.580;9.734;2024-02-14T01:52:50;2.88;;;1.63;;
75191;SDS011;63771;52.580;9.734;2024-02-14T01:55:16;2.70;;;2.15;;
75191;SDS011;63771;52.580;9.734;2024-02-14T01:57:41;1.67;;;1.58;;
75191;SDS011;63771;52.580;9.734;2024-02-14T02:00:07;2.40;;;1.30;;
75191;SDS011;63771;52.580;9.734;2024-02-14T02:02:36;2.13;;;1.55;;
75191;SDS011;63771;52.580;9.734;2024-02-14T02:05:02;2.83;;;1.88;;
75191;SDS011;63771;52.580;9.734;2024-02-14T02:07:28;2.05;;;1.95;;
75191;SDS011;63771;52.580;9.734;2024-02-14T02:09:54;1.75;;;1.65;;
75191;SDS011;63771;52.580;9.734;2024-02-14T02:12:19;2.47;;;1.90;;
75191;SDS011;63771;52.580;9.734;2024-02-14T02:14:45;2.30;;;1.67;;
75191;SDS011;63771;52.580;9.734;2024-02-14T02:17:10;1.50;;;1.40;;
75191;SDS011;63771;52.580;9.734;2024-02-14T02:19:36;5.07;;;1.58;;
75191;SDS011;63771;52.580;9.734;2024-02-14T02:22:01;1.90;;;1.80;;
75191;SDS011;63771;52.580;9.734;2024-02-14T02:24:27;4.53;;;1.67;;
75191;SDS011;63771;52.580;9.734;2024-02-14T02:26:52;1.87;;;1.63;;
75191;SDS011;63771;52.580;9.734;2024-02-14T02:29:18;3.78;;;1.90;;
75191;SDS011;63771;52.580;9.734;2024-02-14T02:31:44;1.73;;;1.63;;
75191;SDS011;63771;52.580;9.734;2024-02-14T02:34:10;2.33;;;1.88;;
75191;SDS011;63771;52.580;9.734;2024-02-14T02:36:35;4.05;;;2.20;;
75191;SDS011;63771;52.580;9.734;2024-02-14T02:39:02;3.45;;;1.98;;
75191;SDS011;63771;52.580;9.734;2024-02-14T02:41:29;4.13;;;2.30;;
75191;SDS011;63771;52.580;9.734;2024-02-14T02:43:56;4.55;;;2.40;;
75191;SDS011;63771;52.580;9.734;2024-02-14T02:46:21;2.17;;;1.80;;
75191;SDS011;63771;52.580;9.734;2024-02-14T02:48:47;4.50;;;2.17;;
75191;SDS011;63771;52.580;9.734;2024-02-14T02:51:12;2.57;;;2.37;;
75191;SDS011;63771;52.580;9.734;2024-02-14T02:53:38;2.10;;;2.00;;
75191;SDS011;63771;52.580;9.734;2024-02-14T02:56:03;2.00;;;1.55;;
75191;SDS011;63771;52.580;9.734;2024-02-14T02:58:29;2.40;;;2.30;;
75191;SDS011;63771;52.580;9.734;2024-02-14T03:00:54;1.83;;;1.70;;
75191;SDS011;63771;52.580;9.734;2024-02-14T03:03:21;3.75;;;2.15;;
75191;SDS011;63771;52.580;9.734;2024-02-14T03:05:47;3.40;;;2.33;;
75191;SDS011;63771;52.580;9.734;2024-02-14T03:08:12;2.47;;;1.90;;
75191;SDS011;63771;52.580;9.734;2024-02-14T03:10:40;3.25;;;1.92;;
75191;SDS011;63771;52.580;9.734;2024-02-14T03:13:06;4.65;;;2.42;;
75191;SDS011;63771;52.580;9.734;2024-02-14T03:15:33;2.53;;;2.13;;
75191;SDS011;63771;52.580;9.734;2024-02-14T03:17:59;3.10;;;2.33;;
75191;SDS011;63771;52.580;9.734;2024-02-14T03:20:24;2.77;;;2.47;;
75191;SDS011;63771;52.580;9.734;2024-02-14T03:22:49;2.63;;;2.17;;
75191;SDS011;63771;52.580;9.734;2024-02-14T03:25:18;2.23;;;2.03;;
75191;SDS011;63771;52.580;9.734;2024-02-14T03:27:44;2.90;;;2.70;;
75191;SDS011;63771;52.580;9.734;2024-02-14T03:30:14;2.80;;;2.60;;
75191;SDS011;63771;52.580;9.734;2024-02-14T03:32:41;2.55;;;2.35;;
75191;SDS011;63771;52.580;9.734;2024-02-14T03:35:07;2.60;;;2.42;;
75191;SDS011;63771;52.580;9.734;2024-02-14T03:37:32;2.70;;;2.50;;
75191;SDS011;63771;52.580;9.734;2024-02-14T03:39:58;3.00;;;2.67;;
75191;SDS011;63771;52.580;9.734;2024-02-14T03:42:24;4.05;;;2.67;;
75191;SDS011;63771;52.580;9.734;2024-02-14T03:44:51;2.60;;;2.25;;
75191;SDS011;63771;52.580;9.734;2024-02-14T03:47:16;4.55;;;2.78;;
75191;SDS011;63771;52.580;9.734;2024-02-14T03:49:42;3.17;;;2.88;;
75191;SDS011;63771;52.580;9.734;2024-02-14T03:52:07;2.93;;;2.13;;
75191;SDS011;63771;52.580;9.734;2024-02-14T03:54:35;2.83;;;2.53;;
75191;SDS011;63771;52.580;9.734;2024-02-14T03:57:02;3.00;;;2.80;;
75191;SDS011;63771;52.580;9.734;2024-02-14T03:59:27;2.53;;;2.40;;
75191;SDS011;63771;52.580;9.734;2024-02-14T04:01:52;3.70;;;2.63;;
75191;SDS011;63771;52.580;9.734;2024-02-14T04:04:18;2.57;;;2.37;;
75191;SDS011;63771;52.580;9.734;2024-02-14T04:06:43;2.83;;;2.42;;
75191;SDS011;63771;52.580;9.734;2024-02-14T04:09:10;3.75;;;2.95;;
75191;SDS011;63771;52.580;9.734;2024-02-14T04:11:36;3.25;;;2.72;;
75191;SDS011;63771;52.580;9.734;2024-02-14T04:14:01;4.90;;;3.53;;
75191;SDS011;63771;52.580;9.734;2024-02-14T04:16:26;5.03;;;2.63;;
75191;SDS011;63771;52.580;9.734;2024-02-14T04:18:52;3.87;;;2.63;;
75191;SDS011;63771;52.580;9.734;2024-02-14T04:21:18;3.88;;;3.05;;
75191;SDS011;63771;52.580;9.734;2024-02-14T04:23:43;3.13;;;2.83;;
75191;SDS011;63771;52.580;9.734;2024-02-14T04:26:09;2.60;;;2.40;;
75191;SDS011;63771;52.580;9.734;2024-02-14T04:28:34;3.87;;;2.60;;
75191;SDS011;63771;52.580;9.734;2024-02-14T04:30:59;3.30;;;3.10;;
75191;SDS011;63771;52.580;9.734;2024-02-14T04:33:25;2.58;;;2.38;;
75191;SDS011;63771;52.580;9.734;2024-02-14T04:35:50;5.88;;;2.83;;
75191;SDS011;63771;52.580;9.734;2024-02-14T04:38:15;2.63;;;2.43;;
75191;SDS011;63771;52.580;9.734;2024-02-14T04:40:43;3.10;;;2.90;;
75191;SDS011;63771;52.580;9.734;2024-02-14T04:43:09;4.00;;;2.75;;
75191;SDS011;63771;52.580;9.734;2024-02-14T04:45:35;3.05;;;2.45;;
75191;SDS011;63771;52.580;9.734;2024-02-14T04:48:00;3.72;;;3.13;;
75191;SDS011;63771;52.580;9.734;2024-02-14T04:50:26;5.50;;;3.23;;
75191;SDS011;63771;52.580;9.734;2024-02-14T04:52:51;3.13;;;2.83;;
75191;SDS011;63771;52.580;9.734;2024-02-14T04:55:16;3.53;;;2.80;;
75191;SDS011;63771;52.580;9.734;2024-02-14T04:57:42;3.85;;;2.72;;
75191;SDS011;63771;52.580;9.734;2024-02-14T05:00:07;2.67;;;2.47;;
75191;SDS011;63771;52.580;9.734;2024-02-14T05:02:34;6.13;;;3.10;;
75191;SDS011;63771;52.580;9.734;2024-02-14T05:05:00;3.42;;;3.08;;
75191;SDS011;63771;52.580;9.734;2024-02-14T05:07:26;3.75;;;3.00;;
75191;SDS011;63771;52.580;9.734;2024-02-14T05:09:52;6.55;;;3.13;;
75191;SDS011;63771;52.580;9.734;2024-02-14T05:12:17;8.20;;;4.07;;
75191;SDS011;63771;52.580;9.734;2024-02-14T05:14:43;3.38;;;3.08;;
75191;SDS011;63771;52.580;9.734;2024-02-14T05:17:08;7.53;;;3.90;;
75191;SDS011;63771;52.580;9.734;2024-02-14T05:19:33;5.07;;;3.50;;
75191;SDS011;63771;52.580;9.734;2024-02-14T05:21:58;5.00;;;3.27;;
75191;SDS011;63771;52.580;9.734;2024-02-14T05:24:24;4.10;;;3.70;;
75191;SDS011;63771;52.580;9.734;2024-02-14T05:26:52;3.85;;;3.50;;
75191;SDS011;63771;52.580;9.734;2024-02-14T05:29:18;4.95;;;3.38;;
75191;SDS011;63771;52.580;9.734;2024-02-14T05:31:46;3.95;;;3.00;;
75191;SDS011;63771;52.580;9.734;2024-02-14T05:34:12;2.85;;;2.65;;
75191;SDS011;63771;52.580;9.734;2024-02-14T05:36:38;4.00;;;3.08;;
75191;SDS011;63771;52.580;9.734;2024-02-14T05:39:04;3.65;;;3.00;;
75191;SDS011;63771;52.580;9.734;2024-02-14T05:41:32;5.13;;;3.15;;
75191;SDS011;63771;52.580;9.734;2024-02-14T05:43:58;3.35;;;3.03;;
75191;SDS011;63771;52.580;9.734;2024-02-14T05:46:24;3.92;;;3.08;;
75191;SDS011;63771;52.580;9.734;2024-02-14T05:48:50;3.50;;;3.30;;
75191;SDS011;63771;52.580;9.734;2024-02-14T05:51:17;4.65;;;2.92;;
75191;SDS011;63771;52.580;9.734;2024-02-14T05:53:42;3.83;;;2.47;;
75191;SDS011;63771;52.580;9.734;2024-02-14T05:56:07;3.70;;;3.20;;
75191;SDS011;63771;52.580;9.734;2024-02-14T05:58:33;4.10;;;2.90;;
75191;SDS011;63771;52.580;9.734;2024-02-14T06:00:58;3.45;;;3.05;;
75191;SDS011;63771;52.580;9.734;2024-02-14T06:03:24;3.35;;;2.40;;
75191;SDS011;63771;52.580;9.734;2024-02-14T06:05:49;4.23;;;2.97;;
75191;SDS011;63771;52.580;9.734;2024-02-14T06:08:14;2.67;;;2.47;;
75191;SDS011;63771;52.580;9.734;2024-02-14T06:10:40;4.00;;;3.07;;
75191;SDS011;63771;52.580;9.734;2024-02-14T06:13:05;3.23;;;2.53;;
75191;SDS011;63771;52.580;9.734;2024-02-14T06:15:30;2.78;;;2.58;;
75191;SDS011;63771;52.580;9.734;2024-02-14T06:17:56;2.95;;;2.45;;
75191;SDS011;63771;52.580;9.734;2024-02-14T06:20:22;6.32;;;3.03;;
75191;SDS011;63771;52.580;9.734;2024-02-14T06:22:48;4.30;;;3.00;;
75191;SDS011;63771;52.580;9.734;2024-02-14T06:25:13;2.75;;;2.17;;
75191;SDS011;63771;52.580;9.734;2024-02-14T06:27:38;3.22;;;2.65;;
75191;SDS011;63771;52.580;9.734;2024-02-14T06:30:04;4.10;;;2.63;;
75191;SDS011;63771;52.580;9.734;2024-02-14T06:32:30;2.63;;;2.42;;
75191;SDS011;63771;52.580;9.734;2024-02-14T06:34:55;2.60;;;2.17;;
75191;SDS011;63771;52.580;9.734;2024-02-14T06:37:21;3.77;;;2.30;;
75191;SDS011;63771;52.580;9.734;2024-02-14T06:39:46;2.10;;;2.00;;
75191;SDS011;63771;52.580;9.734;2024-02-14T06:42:13;2.80;;;2.25;;
75191;SDS011;63771;52.580;9.734;2024-02-14T06:44:38;4.50;;;2.83;;
75191;SDS011;63771;52.580;9.734;2024-02-14T06:47:03;1.90;;;1.80;;
75191;SDS011;63771;52.580;9.734;2024-02-14T06:49:29;2.63;;;2.43;;
75191;SDS011;63771;52.580;9.734;2024-02-14T06:51:54;3.73;;;2.10;;
75191;SDS011;63771;52.580;9.734;2024-02-14T06:54:19;2.10;;;1.90;;
75191;SDS011;63771;52.580;9.734;2024-02-14T06:56:45;2.70;;;2.50;;
75191;SDS011;63771;52.580;9.734;2024-02-14T06:59:10;2.17;;;1.90;;
75191;SDS011;63771;52.580;9.734;2024-02-14T07:01:35;3.27;;;2.20;;
75191;SDS011;63771;52.580;9.734;2024-02-14T07:04:01;5.10;;;2.53;;
75191;SDS011;63771;52.580;9.734;2024-02-14T07:06:26;4.63;;;2.50;;
75191;SDS011;63771;52.580;9.734;2024-02-14T07:08:52;6.43;;;2.20;;
75191;SDS011;63771;52.580;9.734;2024-02-14T07:11:18;2.00;;;1.90;;
75191;SDS011;63771;52.580;9.734;2024-02-14T07:13:43;2.13;;;2.03;;
75191;SDS011;63771;52.580;9.734;2024-02-14T07:16:09;2.05;;;1.88;;
75191;SDS011;63771;52.580;9.734;2024-02-14T07:18:34;2.20;;;2.00;;
75191;SDS011;63771;52.580;9.734;2024-02-14T07:21:00;2.63;;;2.13;;
75191;SDS011;63771;52.580;9.734;2024-02-14T07:23:26;2.00;;;1.90;;
75191;SDS011;63771;52.580;9.734;2024-02-14T07:25:52;4.03;;;2.30;;
75191;SDS011;63771;52.580;9.734;2024-02-14T07:28:17;3.78;;;2.00;;
75191;SDS011;63771;52.580;9.734;2024-02-14T07:30:43;1.83;;;1.73;;
75191;SDS011;63771;52.580;9.734;2024-02-14T07:33:09;2.42;;;2.25;;
75191;SDS011;63771;52.580;9.734;2024-02-14T07:35:34;5.93;;;2.63;;
75191;SDS011;63771;52.580;9.734;2024-02-14T07:38:00;2.10;;;2.00;;
75191;SDS011;63771;52.580;9.734;2024-02-14T07:40:26;2.30;;;2.10;;
75191;SDS011;63771;52.580;9.734;2024-02-14T07:42:52;4.07;;;1.77;;
75191;SDS011;63771;52.580;9.734;2024-02-14T07:45:17;2.30;;;2.10;;
75191;SDS011;63771;52.580;9.734;2024-02-14T07:47:43;6.40;;;2.08;;
75191;SDS011;63771;52.580;9.734;2024-02-14T07:50:08;2.63;;;1.57;;
75191;SDS011;63771;52.580;9.734;2024-02-14T07:52:34;2.72;;;1.70;;
75191;SDS011;63771;52.580;9.734;2024-02-14T07:55:01;2.22;;;1.92;;
75191;SDS011;63771;52.580;9.734;2024-02-14T07:57:26;1.92;;;1.83;;
75191;SDS011;63771;52.580;9.734;2024-02-14T07:59:52;2.00;;;1.90;;
75191;SDS011;63771;52.580;9.734;2024-02-14T08:02:18;2.27;;;1.63;;
75191;SDS011;63771;52.580;9.734;2024-02-14T08:04:44;1.98;;;1.70;;
75191;SDS011;63771;52.580;9.734;2024-02-14T08:07:10;2.15;;;1.83;;
75191;SDS011;63771;52.580;9.734;2024-02-14T08:09:35;2.13;;;1.70;;
75191;SDS011;63771;52.580;9.734;2024-02-14T08:12:01;1.90;;;1.80;;
75191;SDS011;63771;52.580;9.734;2024-02-14T08:14:26;1.80;;;1.70;;
75191;SDS011;63771;52.580;9.734;2024-02-14T08:16:52;2.65;;;1.90;;
75191;SDS011;63771;52.580;9.734;2024-02-14T08:19:17;1.50;;;1.48;;
75191;SDS011;63771;52.580;9.734;2024-02-14T08:21:43;1.90;;;1.80;;
75191;SDS011;63771;52.580;9.734;2024-02-14T08:24:09;1.23;;;1.23;;
75191;SDS011;63771;52.580;9.734;2024-02-14T08:26:34;1.20;;;1.20;;
75191;SDS011;63771;52.580;9.734;2024-02-14T08:28:59;1.50;;;1.40;;
75191;SDS011;63771;52.580;9.734;2024-02-14T08:31:25;2.55;;;1.45;;
75191;SDS011;63771;52.580;9.734;2024-02-14T08:33:50;2.85;;;1.60;;
75191;SDS011;63771;52.580;9.734;2024-02-14T08:36:15;1.67;;;1.60;;
75191;SDS011;63771;52.580;9.734;2024-02-14T08:38:44;1.70;;;1.42;;
75191;SDS011;63771;52.580;9.734;2024-02-14T08:41:09;1.87;;;1.70;;
75191;SDS011;63771;52.580;9.734;2024-02-14T08:43:34;3.00;;;1.52;;
75191;SDS011;63771;52.580;9.734;2024-02-14T08:46:00;2.00;;;1.90;;
75191;SDS011;63771;52.580;9.734;2024-02-14T08:48:25;2.47;;;2.37;;
75191;SDS011;63771;52.580;9.734;2024-02-14T08:50:52;2.42;;;2.30;;
75191;SDS011;63771;52.580;9.734;2024-02-14T08:53:17;2.40;;;2.30;;
75191;SDS011;63771;52.580;9.734;2024-02-14T08:55:43;2.25;;;2.15;;
75191;SDS011;63771;52.580;9.734;2024-02-14T08:58:09;2.72;;;2.53;;
75191;SDS011;63771;52.580;9.734;2024-02-14T09:00:35;3.25;;;3.05;;
75191;SDS011;63771;52.580;9.734;2024-02-14T09:03:01;2.95;;;2.75;;
75191;SDS011;63771;52.580;9.734;2024-02-14T09:05:27;3.83;;;3.53;;
75191;SDS011;63771;52.580;9.734;2024-02-14T09:07:53;3.88;;;3.58;;
75191;SDS011;63771;52.580;9.734;2024-02-14T09:10:19;3.53;;;3.25;;
75191;SDS011;63771;52.580;9.734;2024-02-14T09:12:44;3.58;;;3.38;;
75191;SDS011;63771;52.580;9.734;2024-02-14T09:15:10;3.67;;;3.37;;
75191;SDS011;63771;52.580;9.734;2024-02-14T09:17:36;4.50;;;4.20;;
75191;SDS011;63771;52.580;9.734;2024-02-14T09:20:03;4.72;;;4.32;;
75191;SDS011;63771;52.580;9.734;2024-02-14T09:22:31;4.65;;;4.22;;
75191;SDS011;63771;52.580;9.734;2024-02-14T09:24:56;4.63;;;4.22;;
75191;SDS011;63771;52.580;9.734;2024-02-14T09:27:21;5.23;;;4.07;;
75191;SDS011;63771;52.580;9.734;2024-02-14T09:29:47;6.30;;;5.67;;
75191;SDS011;63771;52.580;9.734;2024-02-14T09:32:12;6.40;;;5.77;;
75191;SDS011;63771;52.580;9.734;2024-02-14T09:34:38;5.55;;;4.93;;
75191;SDS011;63771;52.580;9.734;2024-02-14T09:37:03;6.37;;;5.73;;
75191;SDS011;63771;52.580;9.734;2024-02-14T09:39:30;6.60;;;5.90;;
75191;SDS011;63771;52.580;9.734;2024-02-14T09:41:58;7.10;;;5.97;;
75191;SDS011;63771;52.580;9.734;2024-02-14T09:44:27;7.22;;;5.43;;
75191;SDS011;63771;52.580;9.734;2024-02-14T09:46:53;7.68;;;6.28;;
75191;SDS011;63771;52.580;9.734;2024-02-14T09:49:20;7.10;;;6.38;;
75191;SDS011;63771;52.580;9.734;2024-02-14T09:51:46;6.82;;;6.18;;
75191;SDS011;63771;52.580;9.734;2024-02-14T09:54:14;6.72;;;6.10;;
75191;SDS011;63771;52.580;9.734;2024-02-14T09:56:40;8.00;;;7.03;;
75191;SDS011;63771;52.580;9.734;2024-02-14T09:59:05;6.90;;;6.20;;
75191;SDS011;63771;52.580;9.734;2024-02-14T10:01:31;10.90;;;7.38;;
75191;SDS011;63771;52.580;9.734;2024-02-14T10:03:56;7.40;;;6.68;;
75191;SDS011;63771;52.580;9.734;2024-02-14T10:06:22;7.00;;;6.30;;
75191;SDS011;63771;52.580;9.734;2024-02-14T10:08:49;6.88;;;6.18;;
75191;SDS011;63771;52.580;9.734;2024-02-14T10:11:15;9.90;;;6.32;;
75191;SDS011;63771;52.580;9.734;2024-02-14T10:13:44;8.60;;;7.63;;
75191;SDS011;63771;52.580;9.734;2024-02-14T10:16:11;7.45;;;5.65;;
75191;SDS011;63771;52.580;9.734;2024-02-14T10:18:37;7.80;;;7.00;;
75191;SDS011;63771;52.580;9.734;2024-02-14T10:21:03;7.40;;;6.70;;
75191;SDS011;63771;52.580;9.734;2024-02-14T10:23:29;6.78;;;5.70;;
75191;SDS011;63771;52.580;9.734;2024-02-14T10:25:55;7.70;;;6.93;;
75191;SDS011;63771;52.580;9.734;2024-02-14T10:28:21;7.32;;;6.35;;
75191;SDS011;63771;52.580;9.734;2024-02-14T10:30:47;7.20;;;6.50;;
75191;SDS011;63771;52.580;9.734;2024-02-14T10:33:14;8.65;;;6.07;;
75191;SDS011;63771;52.580;9.734;2024-02-14T10:35:40;6.60;;;5.93;;
75191;SDS011;63771;52.580;9.734;2024-02-14T10:38:07;6.85;;;6.20;;
75191;SDS011;63771;52.580;9.734;2024-02-14T10:40:34;6.25;;;5.65;;
75191;SDS011;63771;52.580;9.734;2024-02-14T10:43:01;7.20;;;6.47;;
75191;SDS011;63771;52.580;9.734;2024-02-14T10:45:27;6.13;;;5.63;;
75191;SDS011;63771;52.580;9.734;2024-02-14T10:47:55;7.35;;;6.43;;
75191;SDS011;63771;52.580;9.734;2024-02-14T10:50:22;6.18;;;5.60;;
75191;SDS011;63771;52.580;9.734;2024-02-14T10:52:49;5.88;;;5.38;;
75191;SDS011;63771;52.580;9.734;2024-02-14T10:55:18;6.63;;;5.97;;
75191;SDS011;63771;52.580;9.734;2024-02-14T10:57:45;7.07;;;6.38;;
75191;SDS011;63771;52.580;9.734;2024-02-14T11:00:12;6.47;;;5.97;;
75191;SDS011;63771;52.580;9.734;2024-02-14T11:02:40;6.05;;;5.53;;
75191;SDS011;63771;52.580;9.734;2024-02-14T11:05:11;6.53;;;5.93;;
75191;SDS011;63771;52.580;9.734;2024-02-14T11:07:43;6.53;;;5.93;;
75191;SDS011;63771;52.580;9.734;2024-02-14T11:10:12;6.60;;;6.00;;
75191;SDS011;63771;52.580;9.734;2024-02-14T11:12:40;6.38;;;5.63;;
75191;SDS011;63771;52.580;9.734;2024-02-14T11:15:09;7.85;;;6.35;;
75191;SDS011;63771;52.580;9.734;2024-02-14T11:18:03;6.53;;;5.93;;
75191;SDS011;63771;52.580;9.734;2024-02-14T11:20:34;6.68;;;6.07;;
75191;SDS011;63771;52.580;9.734;2024-02-14T11:23:04;6.10;;;5.60;;
75191;SDS011;63771;52.580;9.734;2024-02-14T11:25:39;6.38;;;5.82;;
75191;SDS011;63771;52.580;9.734;2024-02-14T11:28:14;5.93;;;5.32;;
75191;SDS011;63771;52.580;9.734;2024-02-14T11:30:40;6.00;;;5.50;;
75191;SDS011;63771;52.580;9.734;2024-02-14T11:33:09;5.47;;;4.97;;
75191;SDS011;63771;52.580;9.734;2024-02-14T11:35:35;5.45;;;4.95;;
75191;SDS011;63771;52.580;9.734;2024-02-14T11:38:05;6.72;;;4.95;;
75191;SDS011;63771;52.580;9.734;2024-02-14T11:40:32;6.47;;;5.85;;
75191;SDS011;63771;52.580;9.734;2024-02-14T11:42:57;6.88;;;6.00;;
75191;SDS011;63771;52.580;9.734;2024-02-14T11:45:22;5.20;;;4.80;;
75191;SDS011;63771;52.580;9.734;2024-02-14T11:47:48;6.57;;;5.00;;
75191;SDS011;63771;52.580;9.734;2024-02-14T11:50:13;5.57;;;5.10;;
75191;SDS011;63771;52.580;9.734;2024-02-14T11:52:39;6.32;;;5.82;;
75191;SDS011;63771;52.580;9.734;2024-02-14T11:55:04;5.97;;;5.10;;
75191;SDS011;63771;52.580;9.734;2024-02-14T11:57:31;5.57;;;5.05;;
75191;SDS011;63771;52.580;9.734;2024-02-14T11:59:57;6.75;;;6.05;;
75191;SDS011;63771;52.580;9.734;2024-02-14T12:02:22;5.90;;;5.40;;
75191;SDS011;63771;52.580;9.734;2024-02-14T12:04:48;5.53;;;5.03;;
75191;SDS011;63771;52.580;9.734;2024-02-14T12:07:15;6.28;;;5.15;;
75191;SDS011;63771;52.580;9.734;2024-02-14T12:09:41;6.22;;;5.72;;
75191;SDS011;63771;52.580;9.734;2024-02-14T12:12:08;5.75;;;5.18;;
75191;SDS011;63771;52.580;9.734;2024-02-14T12:14:34;6.82;;;5.63;;
75191;SDS011;63771;52.580;9.734;2024-02-14T12:16:59;6.78;;;6.07;;
75191;SDS011;63771;52.580;9.734;2024-02-14T12:19:28;6.57;;;5.85;;
75191;SDS011;63771;52.580;9.734;2024-02-14T12:21:53;6.47;;;5.93;;
75191;SDS011;63771;52.580;9.734;2024-02-14T12:24:21;6.45;;;5.75;;
75191;SDS011;63771;52.580;9.734;2024-02-14T12:26:48;6.75;;;6.15;;
75191;SDS011;63771;52.580;9.734;2024-02-14T12:29:13;6.65;;;5.85;;
75191;SDS011;63771;52.580;9.734;2024-02-14T12:31:39;7.80;;;5.80;;
75191;SDS011;63771;52.580;9.734;2024-02-14T12:34:04;6.68;;;5.97;;
75191;SDS011;63771;52.580;9.734;2024-02-14T12:36:30;6.80;;;6.13;;
75191;SDS011;63771;52.580;9.734;2024-02-14T12:38:59;6.28;;;5.72;;
75191;SDS011;63771;52.580;9.734;2024-02-14T12:41:27;6.75;;;6.00;;
75191;SDS011;63771;52.580;9.734;2024-02-14T12:43:54;6.60;;;6.00;;
75191;SDS011;63771;52.580;9.734;2024-02-14T12:46:19;8.33;;;6.97;;
75191;SDS011;63771;52.580;9.734;2024-02-14T12:48:44;18.13;;;6.90;;
75191;SDS011;63771;52.580;9.734;2024-02-14T12:51:10;8.20;;;7.40;;
75191;SDS011;63771;52.580;9.734;2024-02-14T12:53:35;7.30;;;6.57;;
75191;SDS011;63771;52.580;9.734;2024-02-14T12:56:01;8.00;;;7.25;;
75191;SDS011;63771;52.580;9.734;2024-02-14T12:58:26;8.57;;;7.10;;
75191;SDS011;63771;52.580;9.734;2024-02-14T13:00:52;8.05;;;6.85;;
75191;SDS011;63771;52.580;9.734;2024-02-14T13:03:18;9.38;;;7.45;;
75191;SDS011;63771;52.580;9.734;2024-02-14T13:05:44;8.13;;;7.03;;
75191;SDS011;63771;52.580;9.734;2024-02-14T13:08:10;8.45;;;7.47;;
75191;SDS011;63771;52.580;9.734;2024-02-14T13:10:38;7.93;;;7.13;;
75191;SDS011;63771;52.580;9.734;2024-02-14T13:13:05;7.72;;;6.93;;
75191;SDS011;63771;52.580;9.734;2024-02-14T13:15:30;8.57;;;7.67;;
75191;SDS011;63771;52.580;9.734;2024-02-14T13:17:55;8.60;;;7.70;;
75191;SDS011;63771;52.580;9.734;2024-02-14T13:20:23;9.15;;;8.18;;
75191;SDS011;63771;52.580;9.734;2024-02-14T13:22:49;7.88;;;7.05;;
75191;SDS011;63771;52.580;9.734;2024-02-14T13:25:14;7.35;;;6.63;;
75191;SDS011;63771;52.580;9.734;2024-02-14T13:27:40;6.95;;;6.28;;
75191;SDS011;63771;52.580;9.734;2024-02-14T13:30:05;8.30;;;7.35;;
75191;SDS011;63771;52.580;9.734;2024-02-14T13:32:32;7.63;;;6.65;;
75191;SDS011;63771;52.580;9.734;2024-02-14T13:34:57;11.18;;;8.32;;
75191;SDS011;63771;52.580;9.734;2024-02-14T13:37:23;8.20;;;6.78;;
75191;SDS011;63771;52.580;9.734;2024-02-14T13:39:49;9.85;;;7.35;;
75191;SDS011;63771;52.580;9.734;2024-02-14T13:42:15;9.37;;;7.47;;
75191;SDS011;63771;52.580;9.734;2024-02-14T13:44:40;7.47;;;6.75;;
75191;SDS011;63771;52.580;9.734;2024-02-14T13:47:06;7.87;;;7.10;;
75191;SDS011;63771;52.580;9.734;2024-02-14T13:49:31;7.85;;;6.95;;
75191;SDS011;63771;52.580;9.734;2024-02-14T13:51:57;7.32;;;6.38;;
75191;SDS011;63771;52.580;9.734;2024-02-14T13:54:23;8.82;;;6.82;;
75191;SDS011;63771;52.580;9.734;2024-02-14T13:56:49;8.10;;;7.30;;
75191;SDS011;63771;52.580;9.734;2024-02-14T13:59:15;8.23;;;7.03;;
75191;SDS011;63771;52.580;9.734;2024-02-14T14:01:41;7.32;;;6.63;;
75191;SDS011;63771;52.580;9.734;2024-02-14T14:04:07;7.95;;;6.80;;
75191;SDS011;63771;52.580;9.734;2024-02-14T14:06:32;7.50;;;6.80;;
75191;SDS011;63771;52.580;9.734;2024-02-14T14:08:57;7.00;;;6.32;;
75191;SDS011;63771;52.580;9.734;2024-02-14T14:11:24;6.90;;;6.20;;
75191;SDS011;63771;52.580;9.734;2024-02-14T14:13:49;6.63;;;6.03;;
75191;SDS011;63771;52.580;9.734;2024-02-14T14:16:14;6.30;;;5.80;;
75191;SDS011;63771;52.580;9.734;2024-02-14T14:18:40;5.95;;;5.38;;
75191;SDS011;63771;52.580;9.734;2024-02-14T14:21:06;7.35;;;6.10;;
75191;SDS011;63771;52.580;9.734;2024-02-14T14:23:31;6.38;;;5.78;;
75191;SDS011;63771;52.580;9.734;2024-02-14T14:25:57;6.25;;;5.75;;
75191;SDS011;63771;52.580;9.734;2024-02-14T14:28:23;7.82;;;7.03;;
75191;SDS011;63771;52.580;9.734;2024-02-14T14:30:52;6.10;;;5.57;;
75191;SDS011;63771;52.580;9.734;2024-02-14T14:33:19;6.63;;;5.68;;
75191;SDS011;63771;52.580;9.734;2024-02-14T14:35:45;5.82;;;5.03;;
75191;SDS011;63771;52.580;9.734;2024-02-14T14:38:10;4.90;;;4.50;;
75191;SDS011;63771;52.580;9.734;2024-02-14T14:40:36;5.40;;;4.90;;
75191;SDS011;63771;52.580;9.734;2024-02-14T14:43:02;5.55;;;5.07;;